createdAt,value
2022-10-24T00:01:38.760Z,17.13
2022-10-24T00:06:39.279Z,17.18
2022-10-24T00:09:07.190Z,17.20
2022-10-24T00:11:35.438Z,17.21
2022-10-24T00:14:03.744Z,17.21
2022-10-24T00:16:32.982Z,17.23
2022-10-24T00:19:00.766Z,17.25
2022-10-24T00:21:28.560Z,17.25
2022-10-24T00:23:56.447Z,17.24
2022-10-24T00:26:24.277Z,17.28
2022-10-24T00:28:52.134Z,17.27
2022-10-24T00:31:21.113Z,17.28
2022-10-24T00:33:50.295Z,17.29
2022-10-24T00:36:20.668Z,17.30
2022-10-24T00:38:49.004Z,17.31
2022-10-24T00:41:17.991Z,17.32
2022-10-24T00:43:45.967Z,17.35
2022-10-24T00:46:14.510Z,17.32
2022-10-24T00:48:46.865Z,17.27
2022-10-24T00:51:24.583Z,17.25
2022-10-24T00:56:30.236Z,17.19
2022-10-24T00:59:00.105Z,17.17
2022-10-24T01:01:29.264Z,17.14
2022-10-24T01:03:57.124Z,17.12
2022-10-24T01:06:36.060Z,17.08
2022-10-24T01:09:13.535Z,17.10
2022-10-24T01:11:53.110Z,17.08
2022-10-24T01:14:33.066Z,17.11
2022-10-24T01:17:09.282Z,17.08
2022-10-24T01:20:07.368Z,17.08
2022-10-24T01:22:49.056Z,17.11
2022-10-24T01:25:25.930Z,17.10
2022-10-24T01:28:02.409Z,17.08
2022-10-24T01:30:40.516Z,17.07
2022-10-24T01:33:17.362Z,17.10
2022-10-24T01:35:51.643Z,17.09
2022-10-24T01:38:26.474Z,17.09
2022-10-24T01:40:58.732Z,17.07
2022-10-24T01:43:29.401Z,17.09
2022-10-24T01:46:03.023Z,17.06
2022-10-24T01:48:34.443Z,17.06
2022-10-24T01:51:04.354Z,17.05
2022-10-24T01:53:33.110Z,17.03
2022-10-24T01:56:02.004Z,17.02
2022-10-24T01:58:29.873Z,16.99
2022-10-24T02:01:04.432Z,16.99
2022-10-24T02:03:35.735Z,16.98
2022-10-24T02:06:10.051Z,17.00
2022-10-24T02:08:47.048Z,16.99
2022-10-24T02:11:15.340Z,17.06
2022-10-24T02:13:48.837Z,17.11
2022-10-24T02:16:20.446Z,17.13
2022-10-24T02:18:49.907Z,17.16
2022-10-24T02:21:26.696Z,17.18
2022-10-24T02:23:59.596Z,17.21
2022-10-24T02:26:35.513Z,17.20
2022-10-24T02:29:12.862Z,17.22
2022-10-24T02:31:48.441Z,17.23
2022-10-24T02:34:18.531Z,17.23
2022-10-24T02:36:49.874Z,17.28
2022-10-24T02:39:18.502Z,17.26
2022-10-24T02:41:47.207Z,17.29
2022-10-24T02:44:17.904Z,17.30
2022-10-24T02:46:48.667Z,17.31
2022-10-24T02:49:16.488Z,17.33
2022-10-24T02:51:47.332Z,17.31
2022-10-24T02:54:15.771Z,17.33
2022-10-24T02:56:48.513Z,17.33
2022-10-24T02:59:16.277Z,17.32
2022-10-24T03:01:44.250Z,17.34
2022-10-24T03:04:13.395Z,17.32
2022-10-24T03:06:41.133Z,17.29
2022-10-24T03:09:09.199Z,17.28
2022-10-24T03:11:37.180Z,17.25
2022-10-24T03:14:05.279Z,17.22
2022-10-24T03:16:33.108Z,17.15
2022-10-24T03:19:00.851Z,17.15
2022-10-24T03:21:29.955Z,17.13
2022-10-24T03:23:57.874Z,17.09
2022-10-24T03:26:25.761Z,17.10
2022-10-24T03:28:53.529Z,17.08
2022-10-24T03:31:21.330Z,17.05
2022-10-24T03:33:49.089Z,17.03
2022-10-24T03:36:16.967Z,17.00
2022-10-24T03:38:46.145Z,16.98
2022-10-24T03:41:13.918Z,16.96
2022-10-24T03:43:41.682Z,16.94
2022-10-24T03:46:09.459Z,16.92
2022-10-24T03:48:37.430Z,16.91
2022-10-24T03:51:05.370Z,16.87
2022-10-24T03:53:33.113Z,16.87
2022-10-24T03:56:02.294Z,16.88
2022-10-24T03:58:30.043Z,16.88
2022-10-24T04:00:59.314Z,16.85
2022-10-24T04:03:27.729Z,16.85
2022-10-24T04:05:55.507Z,16.81
2022-10-24T04:08:23.460Z,16.80
2022-10-24T04:10:51.253Z,16.80
2022-10-24T04:13:20.466Z,16.81
2022-10-24T04:15:48.262Z,16.80
2022-10-24T04:18:16.025Z,16.76
2022-10-24T04:20:43.853Z,16.75
2022-10-24T04:23:11.815Z,16.74
2022-10-24T04:25:40.613Z,16.75
2022-10-24T04:28:08.569Z,16.73
2022-10-24T04:30:37.839Z,16.69
2022-10-24T04:33:05.750Z,16.75
2022-10-24T04:35:33.613Z,16.77
2022-10-24T04:38:01.459Z,16.81
2022-10-24T04:40:29.405Z,16.83
2022-10-24T04:42:57.164Z,16.82
2022-10-24T04:45:24.983Z,16.82
2022-10-24T04:47:54.037Z,16.82
2022-10-24T04:50:21.871Z,16.83
2022-10-24T04:52:49.589Z,16.82
2022-10-24T04:55:17.922Z,16.84
2022-10-24T04:57:46.060Z,16.85
2022-10-24T05:00:14.898Z,16.87
2022-10-24T05:02:42.810Z,16.86
2022-10-24T05:05:12.144Z,16.87
2022-10-24T05:07:40.384Z,16.88
2022-10-24T05:10:09.193Z,16.91
2022-10-24T05:12:37.528Z,16.92
2022-10-24T05:15:06.307Z,16.92
2022-10-24T05:17:34.249Z,16.91
2022-10-24T05:20:02.079Z,16.91
2022-10-24T05:22:31.258Z,16.92
2022-10-24T05:24:59.023Z,16.92
2022-10-24T05:27:26.847Z,16.93
2022-10-24T05:29:55.339Z,16.94
2022-10-24T05:32:25.041Z,16.91
2022-10-24T05:34:53.248Z,16.87
2022-10-24T05:37:21.089Z,16.84
2022-10-24T05:39:50.534Z,16.77
2022-10-24T05:42:19.112Z,16.75
2022-10-24T05:44:46.937Z,16.73
2022-10-24T05:47:14.852Z,16.70
2022-10-24T05:49:42.869Z,16.66
2022-10-24T05:52:10.665Z,16.64
2022-10-24T05:54:48.783Z,16.60
2022-10-24T05:57:24.712Z,16.56
2022-10-24T05:59:52.439Z,16.54
2022-10-24T06:02:21.976Z,16.51
2022-10-24T06:04:51.229Z,16.49
2022-10-24T06:07:19.891Z,16.46
2022-10-24T06:09:47.709Z,16.45
2022-10-24T06:12:15.543Z,16.42
2022-10-24T06:14:45.708Z,16.39
2022-10-24T06:17:13.546Z,16.35
2022-10-24T06:19:41.678Z,16.34
2022-10-24T06:22:09.942Z,16.35
2022-10-24T06:24:38.740Z,16.34
2022-10-24T06:27:07.322Z,16.35
2022-10-24T06:29:35.928Z,16.36
2022-10-24T06:32:05.460Z,16.36
2022-10-24T06:34:33.426Z,16.35
2022-10-24T06:37:01.179Z,16.34
2022-10-24T06:39:29.270Z,16.36
2022-10-24T06:41:57.102Z,16.35
2022-10-24T06:44:24.829Z,16.34
2022-10-24T06:46:52.636Z,16.34
2022-10-24T06:49:21.807Z,16.35
2022-10-24T06:51:49.741Z,16.34
2022-10-24T06:54:17.973Z,16.33
2022-10-24T06:56:45.856Z,16.34
2022-10-24T06:59:16.910Z,16.37
2022-10-24T07:01:45.754Z,16.40
2022-10-24T07:04:13.603Z,16.42
2022-10-24T07:06:42.736Z,16.47
2022-10-24T07:09:15.317Z,16.47
2022-10-24T07:11:43.817Z,16.50
2022-10-24T07:14:12.213Z,16.53
2022-10-24T07:16:40.542Z,16.56
2022-10-24T07:19:08.497Z,16.59
2022-10-24T07:21:36.575Z,16.62
2022-10-24T07:24:06.838Z,16.65
2022-10-24T07:26:34.710Z,16.70
2022-10-24T07:29:03.518Z,16.73
2022-10-24T07:31:33.464Z,16.75
2022-10-24T07:34:02.431Z,16.81
2022-10-24T07:36:31.626Z,16.83
2022-10-24T07:39:00.995Z,16.85
2022-10-24T07:41:32.178Z,16.88
2022-10-24T07:44:02.191Z,16.89
2022-10-24T07:46:30.675Z,16.91
2022-10-24T07:48:58.518Z,16.94
2022-10-24T07:51:28.072Z,16.95
2022-10-24T07:53:55.821Z,16.94
2022-10-24T07:56:23.716Z,16.95
2022-10-24T07:58:52.883Z,16.98
2022-10-24T08:01:24.725Z,16.97
2022-10-24T08:03:52.556Z,16.91
2022-10-24T08:06:23.356Z,16.95
2022-10-24T08:08:51.686Z,16.97
2022-10-24T08:11:22.550Z,17.00
2022-10-24T08:13:53.832Z,17.00
2022-10-24T08:16:23.494Z,17.00
2022-10-24T08:18:53.397Z,17.04
2022-10-24T08:21:23.357Z,17.05
2022-10-24T08:23:53.527Z,17.03
2022-10-24T08:26:23.371Z,17.05
2022-10-24T08:28:53.346Z,17.06
2022-10-24T08:31:23.341Z,17.08
2022-10-24T08:33:53.975Z,17.10
2022-10-24T08:36:25.091Z,17.10
2022-10-24T08:38:53.339Z,17.13
2022-10-24T08:41:28.468Z,17.16
2022-10-24T08:44:00.113Z,17.18
2022-10-24T08:46:38.173Z,17.24
2022-10-24T08:49:14.440Z,17.31
2022-10-24T08:51:47.006Z,17.36
2022-10-24T08:54:20.347Z,17.39
2022-10-24T08:56:49.453Z,17.42
2022-10-24T08:59:19.271Z,17.43
2022-10-24T09:01:52.015Z,17.43
2022-10-24T09:04:22.954Z,17.44
2022-10-24T09:06:54.969Z,17.42
2022-10-24T09:09:29.757Z,17.44
2022-10-24T09:12:02.615Z,17.52
2022-10-24T09:14:33.671Z,17.59
2022-10-24T09:17:03.620Z,17.71
2022-10-24T09:19:32.123Z,17.80
2022-10-24T09:22:02.163Z,17.86
2022-10-24T09:24:40.453Z,17.88
2022-10-24T09:27:15.859Z,17.87
2022-10-24T09:29:45.629Z,17.92
2022-10-24T09:32:18.808Z,17.97
2022-10-24T09:34:47.114Z,18.00
2022-10-24T09:37:34.359Z,17.99
2022-10-24T09:40:14.255Z,18.07
2022-10-24T09:42:48.389Z,18.18
2022-10-24T09:45:30.325Z,18.25
2022-10-24T09:47:59.823Z,18.38
2022-10-24T09:50:28.323Z,18.39
2022-10-24T09:52:59.965Z,18.50
2022-10-24T09:55:31.178Z,18.52
2022-10-24T09:58:04.107Z,18.64
2022-10-24T10:00:35.317Z,18.69
2022-10-24T10:03:06.439Z,18.69
2022-10-24T10:05:48.582Z,18.64
2022-10-24T10:08:22.629Z,18.67
2022-10-24T10:11:05.851Z,18.72
2022-10-24T10:13:41.100Z,18.89
2022-10-24T10:16:22.999Z,18.95
2022-10-24T10:18:50.938Z,19.06
2022-10-24T10:21:21.289Z,19.11
2022-10-24T10:23:50.994Z,19.13
2022-10-24T10:26:25.097Z,19.08
2022-10-24T10:28:56.946Z,19.09
2022-10-24T10:31:34.692Z,19.06
2022-10-24T10:34:20.253Z,19.11
2022-10-24T10:37:22.543Z,19.22
2022-10-24T10:40:18.049Z,19.32
2022-10-24T10:42:57.186Z,19.39
2022-10-24T10:45:42.041Z,19.41
2022-10-24T10:48:30.243Z,19.39
2022-10-24T10:51:05.852Z,19.47
2022-10-24T10:53:41.024Z,19.52
2022-10-24T10:56:25.471Z,19.52
2022-10-24T10:59:08.584Z,19.51
2022-10-24T11:01:45.211Z,19.52
2022-10-24T11:04:28.648Z,19.48
2022-10-24T11:07:07.682Z,19.48
2022-10-24T11:09:40.719Z,19.49
2022-10-24T11:12:15.941Z,19.49
2022-10-24T11:14:46.418Z,19.56
2022-10-24T11:17:20.130Z,19.53
2022-10-24T11:19:57.749Z,19.50
2022-10-24T11:22:28.163Z,19.49
2022-10-24T11:25:01.625Z,19.49
2022-10-24T11:27:37.948Z,19.54
2022-10-24T11:30:13.220Z,19.58
2022-10-24T11:32:47.325Z,19.56
2022-10-24T11:35:26.827Z,19.51
2022-10-24T11:38:00.351Z,19.51
2022-10-24T11:40:30.820Z,19.55
2022-10-24T11:43:11.468Z,19.51
2022-10-24T11:45:48.535Z,19.49
2022-10-24T11:48:25.258Z,19.47
2022-10-24T11:50:59.710Z,19.47
2022-10-24T11:53:50.726Z,19.44
2022-10-24T11:56:27.123Z,19.47
2022-10-24T11:58:59.169Z,19.37
2022-10-24T12:01:51.400Z,19.33
2022-10-24T12:04:44.881Z,19.35
2022-10-24T12:07:55.037Z,19.21
2022-10-24T12:10:32.872Z,19.29
2022-10-24T12:13:34.964Z,19.29
2022-10-24T12:16:14.492Z,19.32
2022-10-24T12:18:45.818Z,19.33
2022-10-24T12:21:16.936Z,19.30
2022-10-24T12:23:55.476Z,19.22
2022-10-24T12:26:28.417Z,19.18
2022-10-24T12:28:57.882Z,19.17
2022-10-24T12:31:29.677Z,19.18
2022-10-24T12:34:34.436Z,19.10
2022-10-24T12:37:05.547Z,19.13
2022-10-24T12:39:36.906Z,19.16
2022-10-24T12:42:05.517Z,19.15
2022-10-24T12:44:42.367Z,19.17
2022-10-24T12:47:33.310Z,19.17
2022-10-24T12:50:39.797Z,19.11
2022-10-24T12:53:21.267Z,19.13
2022-10-24T12:56:15.857Z,19.15
2022-10-24T12:58:46.597Z,19.21
2022-10-24T13:01:27.350Z,19.24
2022-10-24T13:04:20.871Z,19.28
2022-10-24T13:07:03.497Z,19.31
2022-10-24T13:09:44.601Z,19.31
2022-10-24T13:12:29.836Z,19.30
2022-10-24T13:15:12.229Z,19.26
2022-10-24T13:17:46.420Z,19.31
2022-10-24T13:20:19.764Z,19.30
2022-10-24T13:22:50.833Z,19.35
2022-10-24T13:25:34.531Z,19.36
2022-10-24T13:28:40.556Z,19.37
2022-10-24T13:31:45.769Z,19.35
2022-10-24T13:34:41.052Z,19.39
2022-10-24T13:37:26.627Z,19.41
2022-10-24T13:39:58.179Z,19.51
2022-10-24T13:42:36.330Z,19.58
2022-10-24T13:45:23.295Z,19.58
2022-10-24T13:47:55.500Z,19.62
2022-10-24T13:50:27.264Z,19.67
2022-10-24T13:53:00.130Z,19.69
2022-10-24T13:55:31.824Z,19.77
2022-10-24T13:58:03.190Z,19.76
2022-10-24T14:00:34.238Z,19.74
2022-10-24T14:03:05.857Z,19.75
2022-10-24T14:05:37.265Z,19.74
2022-10-24T14:08:06.965Z,19.69
2022-10-24T14:10:35.213Z,19.68
2022-10-24T14:13:05.724Z,19.64
2022-10-24T14:15:34.334Z,19.61
2022-10-24T14:18:04.764Z,19.64
2022-10-24T14:20:34.597Z,19.60
2022-10-24T14:23:02.923Z,19.63
2022-10-24T14:25:35.184Z,19.63
2022-10-24T14:28:12.368Z,19.60
2022-10-24T14:30:40.281Z,19.48
2022-10-24T14:33:20.684Z,19.36
2022-10-24T14:35:51.256Z,19.20
2022-10-24T14:38:22.940Z,19.02
2022-10-24T14:41:06.204Z,18.84
2022-10-24T14:43:42.016Z,18.68
2022-10-24T14:46:27.984Z,18.55
2022-10-24T14:48:55.874Z,18.56
2022-10-24T14:51:31.906Z,18.47
2022-10-24T14:54:02.944Z,18.47
2022-10-24T14:56:34.634Z,18.46
2022-10-24T14:59:06.513Z,18.39
2022-10-24T15:01:34.432Z,18.37
2022-10-24T15:04:04.972Z,18.30
2022-10-24T15:06:38.914Z,18.26
2022-10-24T15:09:16.775Z,18.22
2022-10-24T15:11:45.853Z,18.18
2022-10-24T15:14:38.735Z,18.13
2022-10-24T15:17:32.562Z,18.12
2022-10-24T15:20:03.204Z,18.13
2022-10-24T15:22:34.443Z,18.14
2022-10-24T15:25:05.469Z,18.10
2022-10-24T15:27:40.266Z,18.10
2022-10-24T15:30:14.492Z,18.13
2022-10-24T15:32:42.398Z,18.13
2022-10-24T15:35:10.915Z,18.14
2022-10-24T15:37:38.800Z,18.19
2022-10-24T15:40:13.700Z,18.21
2022-10-24T15:42:41.548Z,18.21
2022-10-24T15:45:16.134Z,18.19
2022-10-24T15:47:44.782Z,18.22
2022-10-24T15:50:15.183Z,18.21
2022-10-24T15:52:43.741Z,18.17
2022-10-24T15:55:17.845Z,18.12
2022-10-24T15:57:46.720Z,18.12
2022-10-24T16:00:19.868Z,18.13
2022-10-24T16:02:49.516Z,18.13
2022-10-24T16:05:18.961Z,18.12
2022-10-24T16:07:47.393Z,18.08
2022-10-24T16:10:19.739Z,18.09
2022-10-24T16:12:48.045Z,18.02
2022-10-24T16:15:21.240Z,17.98
2022-10-24T16:17:49.064Z,17.99
2022-10-24T16:20:17.560Z,17.95
2022-10-24T16:22:45.659Z,17.92
2022-10-24T16:25:16.957Z,17.91
2022-10-24T16:27:45.083Z,17.88
2022-10-24T16:30:13.753Z,17.84
2022-10-24T16:32:43.076Z,17.83
2022-10-24T16:35:17.246Z,17.79
2022-10-24T16:37:45.700Z,17.73
2022-10-24T16:40:13.802Z,17.70
2022-10-24T16:42:42.096Z,17.64
2022-10-24T16:45:10.729Z,17.56
2022-10-24T16:47:38.668Z,17.48
2022-10-24T16:50:09.221Z,17.39
2022-10-24T16:52:37.118Z,17.36
2022-10-24T16:55:05.473Z,17.37
2022-10-24T16:57:33.523Z,17.38
2022-10-24T17:00:01.359Z,17.38
2022-10-24T17:02:29.185Z,17.37
2022-10-24T17:04:56.968Z,17.40
2022-10-24T17:07:26.158Z,17.38
2022-10-24T17:09:53.958Z,17.33
2022-10-24T17:12:22.253Z,17.30
2022-10-24T17:14:50.310Z,17.26
2022-10-24T17:17:18.293Z,17.23
2022-10-24T17:19:48.470Z,17.18
2022-10-24T17:22:16.480Z,17.12
2022-10-24T17:24:46.017Z,17.11
2022-10-24T17:27:15.524Z,17.10
2022-10-24T17:29:44.491Z,17.04
2022-10-24T17:32:13.904Z,17.00
2022-10-24T17:34:43.511Z,16.98
2022-10-24T17:37:19.314Z,16.95
2022-10-24T17:39:50.712Z,16.94
2022-10-24T17:42:18.962Z,16.92
2022-10-24T17:44:47.758Z,16.94
2022-10-24T17:47:16.531Z,16.94
2022-10-24T17:49:44.748Z,16.90
2022-10-24T17:52:14.944Z,16.90
2022-10-24T17:54:45.728Z,16.89
2022-10-24T17:57:15.527Z,16.91
2022-10-24T17:59:43.361Z,16.87
2022-10-24T18:02:13.949Z,16.86
2022-10-24T18:04:42.952Z,16.82
2022-10-24T18:07:11.071Z,16.82
2022-10-24T18:09:40.104Z,16.84
2022-10-24T18:12:08.309Z,16.86
2022-10-24T18:14:38.700Z,16.80
2022-10-24T18:17:06.591Z,16.78
2022-10-24T18:19:34.863Z,16.79
2022-10-24T18:22:03.014Z,16.81
2022-10-24T18:24:31.029Z,16.82
2022-10-24T18:26:58.826Z,16.76
2022-10-24T18:29:26.875Z,16.72
2022-10-24T18:31:56.106Z,16.68
2022-10-24T18:34:24.515Z,16.67
2022-10-24T18:36:52.385Z,16.68
2022-10-24T18:39:20.547Z,16.65
2022-10-24T18:41:50.046Z,16.62
2022-10-24T18:44:29.440Z,16.60
2022-10-24T18:47:03.448Z,16.62
2022-10-24T18:49:33.583Z,16.62
2022-10-24T18:52:12.139Z,16.58
2022-10-24T18:54:46.382Z,16.50
2022-10-24T18:57:23.198Z,16.44
2022-10-24T18:59:51.752Z,16.39
2022-10-24T19:02:29.041Z,16.33
2022-10-24T19:05:13.703Z,16.27
2022-10-24T19:07:42.306Z,16.20
2022-10-24T19:10:16.741Z,16.14
2022-10-24T19:12:45.073Z,16.16
2022-10-24T19:15:14.675Z,16.11
2022-10-24T19:17:44.028Z,16.12
2022-10-24T19:20:16.914Z,16.12
2022-10-24T19:22:45.107Z,16.13
2022-10-24T19:25:13.435Z,16.13
2022-10-24T19:27:41.783Z,16.12
2022-10-24T19:30:11.506Z,16.12
2022-10-24T19:32:39.411Z,16.09
2022-10-24T19:35:09.380Z,16.06
2022-10-24T19:37:38.186Z,16.03
2022-10-24T19:40:08.151Z,16.03
2022-10-24T19:42:35.996Z,16.05
2022-10-24T19:45:05.172Z,16.04
2022-10-24T19:47:33.104Z,16.05
2022-10-24T19:50:01.169Z,16.00
2022-10-24T19:52:30.296Z,16.01
2022-10-24T19:54:58.064Z,16.01
2022-10-24T19:57:25.917Z,15.99
2022-10-24T19:59:53.983Z,15.98
2022-10-24T20:02:22.153Z,15.95
2022-10-24T20:04:49.933Z,15.86
2022-10-24T20:07:18.354Z,15.82
2022-10-24T20:09:48.163Z,15.78
2022-10-24T20:12:16.026Z,15.79
2022-10-24T20:14:43.785Z,15.77
2022-10-24T20:17:11.568Z,15.76
2022-10-24T20:19:39.353Z,15.78
2022-10-24T20:22:07.167Z,15.78
2022-10-24T20:24:34.980Z,15.72
2022-10-24T20:27:04.236Z,15.76
2022-10-24T20:29:32.440Z,15.77
2022-10-24T20:32:00.290Z,15.78
2022-10-24T20:34:28.321Z,15.80
2022-10-24T20:36:56.156Z,15.83
2022-10-24T20:39:24.076Z,15.86
2022-10-24T20:41:54.114Z,15.86
2022-10-24T20:44:23.812Z,15.82
2022-10-24T20:46:53.237Z,15.81
2022-10-24T20:49:21.065Z,15.82
2022-10-24T20:51:49.143Z,15.83
2022-10-24T20:54:17.177Z,15.82
2022-10-24T20:56:45.569Z,15.82
2022-10-24T20:59:14.164Z,15.82
2022-10-24T21:01:43.614Z,15.81
2022-10-24T21:04:12.852Z,15.77
2022-10-24T21:06:42.466Z,15.81
2022-10-24T21:09:10.328Z,15.83
2022-10-24T21:11:38.703Z,15.84
2022-10-24T21:14:08.053Z,15.81
2022-10-24T21:16:36.277Z,15.82
2022-10-24T21:19:05.991Z,15.83
2022-10-24T21:21:34.135Z,15.78
2022-10-24T21:24:06.525Z,15.77
2022-10-24T21:26:34.987Z,15.74
2022-10-24T21:29:09.358Z,15.72
2022-10-24T21:31:50.149Z,15.68
2022-10-24T21:34:20.009Z,15.67
2022-10-24T21:36:48.214Z,15.64
2022-10-24T21:39:17.235Z,15.60
2022-10-24T21:41:45.546Z,15.59
2022-10-24T21:44:14.428Z,15.58
2022-10-24T21:46:42.392Z,15.56
2022-10-24T21:49:10.351Z,15.54
2022-10-24T21:51:41.353Z,15.55
2022-10-24T21:54:16.756Z,15.51
2022-10-24T21:56:44.668Z,15.52
2022-10-24T21:59:14.974Z,15.51
2022-10-24T22:01:43.884Z,15.51
2022-10-24T22:04:13.151Z,15.49
2022-10-24T22:06:43.307Z,15.47
2022-10-24T22:09:15.182Z,15.46
2022-10-24T22:11:43.181Z,15.45
2022-10-24T22:14:12.738Z,15.43
2022-10-24T22:16:41.485Z,15.40
2022-10-24T22:19:11.045Z,15.39
2022-10-24T22:21:40.990Z,15.39
2022-10-24T22:24:12.109Z,15.40
2022-10-24T22:26:40.693Z,15.42
2022-10-24T22:29:11.518Z,15.41
2022-10-24T22:31:40.055Z,15.39
2022-10-24T22:34:08.165Z,15.33
2022-10-24T22:36:45.867Z,15.31
2022-10-24T22:39:17.597Z,15.28
2022-10-24T22:41:46.513Z,15.27
2022-10-24T22:44:16.310Z,15.25
2022-10-24T22:47:10.410Z,15.19
2022-10-24T22:49:48.400Z,15.17
2022-10-24T22:52:16.935Z,15.19
2022-10-24T22:54:46.817Z,15.23
2022-10-24T22:57:15.169Z,15.25
2022-10-24T22:59:44.061Z,15.28
2022-10-24T23:02:24.131Z,15.27
2022-10-24T23:05:03.905Z,15.28
2022-10-24T23:07:39.046Z,15.29
2022-10-24T23:10:12.009Z,15.29
2022-10-24T23:12:40.864Z,15.35
2022-10-24T23:15:14.306Z,15.33
2022-10-24T23:17:43.138Z,15.34
2022-10-24T23:20:22.946Z,15.32
2022-10-24T23:22:58.430Z,15.29
2022-10-24T23:25:39.190Z,15.31
2022-10-24T23:28:15.362Z,15.28
2022-10-24T23:30:43.726Z,15.28
2022-10-24T23:33:22.773Z,15.28
2022-10-24T23:35:56.161Z,15.31
2022-10-24T23:38:25.310Z,15.32
2022-10-24T23:40:55.436Z,15.32
2022-10-24T23:43:24.241Z,15.33
2022-10-24T23:45:58.560Z,15.33
2022-10-24T23:48:42.121Z,15.31
2022-10-24T23:51:15.651Z,15.30
2022-10-24T23:53:52.349Z,15.25
2022-10-24T23:56:23.331Z,15.23
2022-10-24T23:58:51.735Z,15.22
